createdAt,value
2023-10-25T00:00:20.219Z,11.93
2023-10-25T00:02:39.362Z,11.93
2023-10-25T00:04:55.887Z,11.94
2023-10-25T00:07:16.533Z,11.96
2023-10-25T00:09:32.099Z,12.01
2023-10-25T00:11:52.989Z,12.01
2023-10-25T00:14:11.053Z,12.01
2023-10-25T00:16:29.218Z,12.01
2023-10-25T00:18:47.260Z,12.02
2023-10-25T00:21:05.329Z,12.01
2023-10-25T00:23:23.384Z,12.04
2023-10-25T00:25:41.470Z,12.04
2023-10-25T00:27:54.609Z,12.04
2023-10-25T00:30:10.142Z,12.01
2023-10-25T00:32:28.256Z,12.02
2023-10-25T00:34:46.297Z,12.02
2023-10-25T00:37:07.416Z,12.02
2023-10-25T00:39:20.975Z,12.06
2023-10-25T00:41:41.572Z,12.04
2023-10-25T00:44:02.215Z,12.01
2023-10-25T00:46:16.884Z,11.94
2023-10-25T00:48:35.891Z,11.86
2023-10-25T00:50:53.956Z,11.78
2023-10-25T00:53:12.069Z,11.68
2023-10-25T00:55:30.138Z,11.56
2023-10-25T00:57:51.635Z,11.47
2023-10-25T01:00:06.323Z,11.39
2023-10-25T01:02:21.886Z,11.31
2023-10-25T01:04:38.368Z,11.28
2023-10-25T01:06:55.091Z,11.25
2023-10-25T01:09:13.137Z,11.27
2023-10-25T01:11:31.221Z,11.27
2023-10-25T01:13:47.778Z,11.25
2023-10-25T01:16:06.031Z,11.29
2023-10-25T01:18:21.446Z,11.35
2023-10-25T01:20:42.018Z,11.39
2023-10-25T01:23:00.113Z,11.44
2023-10-25T01:25:13.719Z,11.50
2023-10-25T01:27:29.288Z,11.53
2023-10-25T01:29:50.807Z,11.56
2023-10-25T01:32:11.540Z,11.59
2023-10-25T01:34:30.584Z,11.64
2023-10-25T01:36:48.682Z,11.70
2023-10-25T01:39:04.297Z,11.71
2023-10-25T01:41:24.272Z,11.74
2023-10-25T01:43:41.454Z,11.75
2023-10-25T01:45:59.689Z,11.77
2023-10-25T01:48:14.140Z,11.78
2023-10-25T01:50:32.180Z,11.80
2023-10-25T01:52:50.356Z,11.72
2023-10-25T01:55:06.080Z,11.64
2023-10-25T01:57:26.571Z,11.57
2023-10-25T01:59:44.628Z,11.61
2023-10-25T02:02:02.731Z,11.62
2023-10-25T02:04:20.879Z,11.65
2023-10-25T02:06:42.407Z,11.65
2023-10-25T02:09:00.469Z,11.57
2023-10-25T02:11:17.026Z,11.57
2023-10-25T02:13:32.630Z,11.54
2023-10-25T02:15:53.348Z,11.56
2023-10-25T02:18:11.318Z,11.57
2023-10-25T02:20:29.384Z,11.57
2023-10-25T02:22:45.973Z,11.59
2023-10-25T02:25:01.603Z,11.61
2023-10-25T02:27:19.649Z,11.57
2023-10-25T02:29:40.687Z,11.59
2023-10-25T02:32:01.462Z,11.61
2023-10-25T02:34:21.461Z,11.61
2023-10-25T02:36:38.025Z,11.59
2023-10-25T02:38:56.099Z,11.57
2023-10-25T02:41:14.147Z,11.59
2023-10-25T02:43:35.710Z,11.56
2023-10-25T02:45:53.896Z,11.54
2023-10-25T02:48:11.873Z,11.49
2023-10-25T02:50:26.493Z,11.46
2023-10-25T02:52:44.539Z,11.43
2023-10-25T02:55:02.711Z,11.39
2023-10-25T02:57:23.229Z,11.35
2023-10-25T02:59:38.790Z,11.35
2023-10-25T03:01:51.906Z,11.34
2023-10-25T03:04:09.633Z,11.29
2023-10-25T03:06:26.526Z,11.21
2023-10-25T03:08:44.612Z,11.16
2023-10-25T03:11:00.230Z,11.11
2023-10-25T03:13:14.458Z,11.09
2023-10-25T03:15:31.906Z,11.03
2023-10-25T03:17:49.125Z,11.03
2023-10-25T03:20:06.604Z,11.02
2023-10-25T03:22:20.235Z,10.99
2023-10-25T03:24:34.806Z,10.95
2023-10-25T03:26:49.359Z,10.88
2023-10-25T03:29:10.856Z,10.84
2023-10-25T03:31:27.611Z,10.78
2023-10-25T03:33:43.148Z,10.73
2023-10-25T03:36:04.222Z,10.70
2023-10-25T03:38:19.408Z,10.71
2023-10-25T03:40:37.200Z,10.68
2023-10-25T03:42:57.841Z,10.65
2023-10-25T03:45:12.504Z,10.62
2023-10-25T03:47:26.608Z,10.58
2023-10-25T03:49:42.817Z,10.56
2023-10-25T03:52:03.113Z,10.58
2023-10-25T03:54:21.206Z,10.55
2023-10-25T03:56:37.766Z,10.52
2023-10-25T03:58:52.334Z,10.43
2023-10-25T04:01:11.948Z,10.39
2023-10-25T04:03:27.042Z,10.34
2023-10-25T04:05:45.088Z,10.30
2023-10-25T04:07:57.173Z,10.24
2023-10-25T04:10:11.873Z,10.21
2023-10-25T04:12:27.317Z,10.19
2023-10-25T04:14:45.509Z,10.24
2023-10-25T04:17:03.561Z,10.22
2023-10-25T04:19:21.587Z,10.22
2023-10-25T04:21:35.234Z,10.24
2023-10-25T04:24:00.321Z,10.25
2023-10-25T04:26:37.143Z,10.28
2023-10-25T04:29:34.848Z,10.30
2023-10-25T04:32:30.819Z,10.30
2023-10-25T04:34:54.526Z,10.25
2023-10-25T04:37:09.122Z,10.21
2023-10-25T04:39:22.662Z,10.14
2023-10-25T04:42:49.386Z,9.97
2023-10-25T04:45:02.444Z,9.85
2023-10-25T04:47:17.254Z,9.73
2023-10-25T04:49:54.254Z,9.61
2023-10-25T04:52:10.511Z,9.49
2023-10-25T04:54:31.156Z,9.43
2023-10-25T04:58:28.158Z,9.32
2023-10-25T05:00:46.372Z,9.27
2023-10-25T05:03:09.834Z,9.18
2023-10-25T05:05:24.456Z,9.13
2023-10-25T05:07:38.995Z,9.02
2023-10-25T05:09:53.756Z,8.91
2023-10-25T05:12:08.182Z,8.87
2023-10-25T05:14:26.245Z,8.84
2023-10-25T05:16:41.930Z,8.81
2023-10-25T05:18:59.948Z,8.79
2023-10-25T05:21:15.596Z,8.72
2023-10-25T05:23:33.620Z,8.71
2023-10-25T05:25:49.771Z,8.68
2023-10-25T05:28:09.817Z,8.62
2023-10-25T05:30:27.881Z,8.62
2023-10-25T05:32:45.938Z,8.58
2023-10-25T05:35:02.561Z,8.55
2023-10-25T05:38:01.153Z,8.54
2023-10-25T05:40:22.836Z,8.54
2023-10-25T05:42:39.298Z,8.47
2023-10-25T05:44:57.367Z,8.40
2023-10-25T05:49:16.204Z,8.36
2023-10-25T05:51:31.740Z,8.35
2023-10-25T05:53:49.788Z,8.35
2023-10-25T05:56:07.879Z,8.33
2023-10-25T05:58:26.008Z,8.28
2023-10-25T06:00:40.526Z,8.22
2023-10-25T06:02:56.274Z,8.21
2023-10-25T06:03:56.202Z,8.20
2023-10-25T06:06:14.236Z,8.18
2023-10-25T06:08:30.859Z,8.17
2023-10-25T06:10:46.420Z,8.14
2023-10-25T06:13:04.516Z,8.10
2023-10-25T06:15:22.584Z,8.10
2023-10-25T06:17:38.204Z,8.12
2023-10-25T06:19:56.286Z,8.17
2023-10-25T06:22:11.911Z,8.17
2023-10-25T06:24:26.399Z,8.21
2023-10-25T06:26:46.989Z,8.26
2023-10-25T06:29:02.578Z,8.30
2023-10-25T06:31:20.754Z,8.35
2023-10-25T06:33:38.776Z,8.35
2023-10-25T06:35:56.842Z,8.33
2023-10-25T06:38:14.939Z,8.36
2023-10-25T06:40:34.016Z,8.40
2023-10-25T06:42:52.166Z,8.47
2023-10-25T06:45:10.476Z,8.58
2023-10-25T06:47:32.085Z,8.63
2023-10-25T06:49:50.138Z,8.72
2023-10-25T06:52:08.257Z,8.81
2023-10-25T06:54:26.312Z,8.90
2023-10-25T06:56:41.904Z,8.96
2023-10-25T06:58:57.506Z,9.01
2023-10-25T07:01:13.197Z,9.05
2023-10-25T07:03:27.704Z,9.06
2023-10-25T07:05:41.573Z,9.13
2023-10-25T07:07:59.651Z,9.18
2023-10-25T07:10:17.430Z,9.20
2023-10-25T07:12:35.586Z,9.25
2023-10-25T07:14:51.097Z,9.24
2023-10-25T07:17:06.906Z,9.25
2023-10-25T07:19:24.792Z,9.27
2023-10-25T07:21:42.954Z,9.30
2023-10-25T07:23:58.428Z,9.32
2023-10-25T07:26:16.505Z,9.35
2023-10-25T07:28:34.093Z,9.40
2023-10-25T07:30:52.261Z,9.46
2023-10-25T07:33:12.911Z,9.50
2023-10-25T07:35:25.829Z,9.53
2023-10-25T07:37:39.446Z,9.58
2023-10-25T07:39:57.592Z,9.64
2023-10-25T07:42:12.078Z,9.68
2023-10-25T07:44:27.646Z,9.78
2023-10-25T07:46:43.439Z,9.83
2023-10-25T07:48:58.846Z,9.89
2023-10-25T07:51:14.440Z,9.96
2023-10-25T07:53:29.996Z,10.06
2023-10-25T08:00:20.766Z,10.30
2023-10-25T08:02:38.926Z,10.26
2023-10-25T08:04:54.385Z,10.33
2023-10-25T08:07:09.985Z,10.28
2023-10-25T08:09:25.564Z,10.37
2023-10-25T08:11:46.677Z,10.51
2023-10-25T08:14:04.765Z,10.43
2023-10-25T08:16:22.856Z,10.52
2023-10-25T08:18:38.683Z,10.60
2023-10-25T08:20:53.999Z,10.68
2023-10-25T08:23:12.032Z,10.73
2023-10-25T08:25:30.160Z,10.78
2023-10-25T08:27:46.709Z,10.89
2023-10-25T08:29:59.828Z,10.99
2023-10-25T08:32:16.333Z,11.17
2023-10-25T08:34:34.434Z,11.24
2023-10-25T08:36:50.012Z,11.20
2023-10-25T08:39:05.614Z,11.21
2023-10-25T08:41:20.231Z,11.31
2023-10-25T08:43:35.783Z,11.43
2023-10-25T08:45:50.504Z,11.39
2023-10-25T08:48:04.057Z,11.41
2023-10-25T08:50:19.613Z,11.43
2023-10-25T08:52:37.727Z,11.52
2023-10-25T08:54:55.812Z,11.67
2023-10-25T08:57:09.144Z,11.71
2023-10-25T08:59:29.519Z,11.78
2023-10-25T09:01:45.087Z,11.83
2023-10-25T09:04:00.735Z,11.96
2023-10-25T09:06:14.338Z,12.06
2023-10-25T09:08:29.856Z,12.12
2023-10-25T09:10:45.462Z,11.94
2023-10-25T09:13:00.008Z,11.89
2023-10-25T09:15:15.567Z,11.90
2023-10-25T09:17:32.203Z,12.02
2023-10-25T09:19:50.261Z,11.89
2023-10-25T09:22:05.840Z,11.83
2023-10-25T09:24:23.915Z,11.93
2023-10-25T09:26:42.047Z,12.06
2023-10-25T09:29:00.101Z,12.02
2023-10-25T09:31:22.400Z,11.89
2023-10-25T09:33:36.297Z,12.01
2023-10-25T09:35:50.925Z,12.06
2023-10-25T09:38:05.405Z,12.15
2023-10-25T09:40:23.516Z,12.02
2023-10-25T09:42:39.082Z,12.04
2023-10-25T09:44:54.702Z,12.09
2023-10-25T09:47:10.247Z,12.26
2023-10-25T09:49:30.885Z,12.16
2023-10-25T09:51:46.467Z,12.29
2023-10-25T09:54:04.568Z,12.38
2023-10-25T09:56:25.215Z,12.33
2023-10-25T09:58:40.786Z,12.46
2023-10-25T10:00:58.867Z,12.51
2023-10-25T10:03:17.077Z,12.74
2023-10-25T10:05:30.586Z,12.84
2023-10-25T10:07:42.639Z,12.96
2023-10-25T10:09:56.230Z,12.84
2023-10-25T10:12:13.677Z,13.07
2023-10-25T10:14:27.382Z,12.77
2023-10-25T10:16:48.007Z,12.84
2023-10-25T10:19:01.593Z,12.92
2023-10-25T10:21:22.139Z,13.04
2023-10-25T10:23:35.238Z,13.17
2023-10-25T10:25:53.340Z,13.11
2023-10-25T10:28:11.411Z,13.25
2023-10-25T10:30:32.033Z,12.97
2023-10-25T10:32:50.103Z,13.22
2023-10-25T10:35:08.165Z,13.44
2023-10-25T10:37:26.219Z,13.38
2023-10-25T10:39:44.305Z,13.22
2023-10-25T10:41:57.446Z,13.18
2023-10-25T10:44:18.003Z,13.32
2023-10-25T10:46:36.056Z,13.25
2023-10-25T10:48:51.661Z,13.33
2023-10-25T10:51:06.249Z,13.15
2023-10-25T10:53:19.346Z,13.12
2023-10-25T10:55:35.013Z,13.20
2023-10-25T11:00:08.592Z,13.84
2023-10-25T11:02:24.212Z,13.80
2023-10-25T11:04:38.826Z,13.87
2023-10-25T11:06:56.937Z,13.98
2023-10-25T11:09:14.932Z,13.99
2023-10-25T11:11:34.020Z,13.99
2023-10-25T11:13:50.542Z,13.94
2023-10-25T11:16:08.668Z,13.76
2023-10-25T11:18:22.296Z,13.80
2023-10-25T11:20:37.868Z,13.81
2023-10-25T11:22:53.407Z,13.76
2023-10-25T11:25:09.011Z,13.58
2023-10-25T11:27:25.594Z,13.24
2023-10-25T11:29:44.641Z,13.17
2023-10-25T11:32:00.320Z,12.84
2023-10-25T11:34:19.300Z,12.87
2023-10-25T11:36:39.885Z,12.79
2023-10-25T11:38:55.550Z,12.69
2023-10-25T11:41:07.569Z,12.64
2023-10-25T11:43:23.155Z,12.60
2023-10-25T11:45:38.759Z,12.56
2023-10-25T11:47:54.397Z,12.52
2023-10-25T11:50:10.882Z,12.49
2023-10-25T11:52:31.479Z,12.44
2023-10-25T11:54:48.066Z,12.42
2023-10-25T11:57:03.671Z,12.41
2023-10-25T11:59:22.818Z,12.41
2023-10-25T12:01:43.459Z,12.48
2023-10-25T12:04:01.558Z,12.56
2023-10-25T12:06:17.101Z,12.59
2023-10-25T12:08:37.705Z,12.63
2023-10-25T12:10:58.286Z,12.64
2023-10-25T12:13:17.337Z,12.59
2023-10-25T12:15:31.946Z,12.69
2023-10-25T12:17:52.656Z,12.88
2023-10-25T12:22:33.725Z,13.18
2023-10-25T12:24:54.323Z,13.17
2023-10-25T12:27:14.911Z,13.33
2023-10-25T12:29:35.555Z,13.58
2023-10-25T12:31:57.599Z,13.71
2023-10-25T12:34:14.241Z,13.84
2023-10-25T12:36:34.776Z,13.84
2023-10-25T12:38:52.845Z,13.92
2023-10-25T12:41:12.556Z,13.83
2023-10-25T12:43:29.518Z,13.79
2023-10-25T12:45:45.202Z,13.80
2023-10-25T12:48:05.782Z,13.69
2023-10-25T12:50:19.298Z,13.56
2023-10-25T12:52:37.363Z,13.62
2023-10-25T12:54:55.450Z,13.59
2023-10-25T12:57:07.562Z,13.55
2023-10-25T12:59:28.217Z,13.56
2023-10-25T13:01:53.350Z,13.52
2023-10-25T13:04:09.441Z,13.56
2023-10-25T13:06:24.006Z,13.56
2023-10-25T13:08:44.550Z,13.58
2023-10-25T13:11:02.621Z,13.54
2023-10-25T13:13:20.689Z,13.58
2023-10-25T13:15:37.331Z,13.61
2023-10-25T13:17:50.976Z,13.55
2023-10-25T13:20:11.479Z,13.56
2023-10-25T13:22:27.041Z,13.67
2023-10-25T13:24:47.632Z,13.67
2023-10-25T13:27:08.283Z,13.80
2023-10-25T13:29:23.800Z,13.80
2023-10-25T13:31:42.017Z,13.74
2023-10-25T13:33:55.676Z,13.69
2023-10-25T13:36:09.926Z,13.70
2023-10-25T13:38:23.487Z,13.59
2023-10-25T13:40:41.541Z,13.52
2023-10-25T13:42:55.152Z,13.46
2023-10-25T13:45:10.799Z,13.36
2023-10-25T13:47:28.904Z,13.20
2023-10-25T13:49:46.926Z,13.03
2023-10-25T13:52:08.018Z,12.96
2023-10-25T13:54:26.420Z,12.88
2023-10-25T13:56:44.491Z,12.81
2023-10-25T13:59:05.069Z,12.77
2023-10-25T14:01:25.729Z,12.71
2023-10-25T14:03:46.862Z,12.57
2023-10-25T14:06:07.462Z,12.48
2023-10-25T14:08:27.989Z,12.42
2023-10-25T14:10:46.181Z,12.37
2023-10-25T14:13:17.040Z,12.31
2023-10-25T14:15:24.763Z,12.31
2023-10-25T14:17:42.881Z,12.27
2023-10-25T14:20:00.984Z,12.29
2023-10-25T14:22:21.541Z,12.39
2023-10-25T14:24:39.609Z,12.37
2023-10-25T14:27:00.232Z,12.33
2023-10-25T14:29:18.272Z,12.30
2023-10-25T14:31:36.491Z,12.34
2023-10-25T14:33:50.953Z,12.34
2023-10-25T14:36:06.596Z,12.31
2023-10-25T14:38:24.705Z,12.26
2023-10-25T14:40:45.254Z,12.15
2023-10-25T14:43:01.826Z,12.08
2023-10-25T14:45:18.454Z,12.01
2023-10-25T14:47:39.036Z,11.93
2023-10-25T14:49:54.579Z,11.86
2023-10-25T14:52:15.171Z,11.77
2023-10-25T14:54:33.258Z,11.70
2023-10-25T14:56:51.386Z,11.61
2023-10-25T14:59:10.449Z,11.50
2023-10-25T15:01:32.080Z,11.41
2023-10-25T15:03:46.426Z,11.36
2023-10-25T15:07:11.115Z,11.27
2023-10-25T15:09:26.906Z,11.14
2023-10-25T15:13:39.094Z,11.02
2023-10-25T15:16:13.550Z,10.89
2023-10-25T15:24:24.074Z,10.68
2023-10-25T15:26:41.559Z,10.63
2023-10-25T15:28:57.163Z,10.59
2023-10-25T15:32:34.920Z,10.46
2023-10-25T15:35:19.086Z,10.40
2023-10-25T15:37:36.173Z,10.37
2023-10-25T15:40:08.670Z,10.32
2023-10-25T15:42:16.337Z,10.22
2023-10-25T15:44:35.094Z,10.14
2023-10-25T15:46:52.058Z,10.03
2023-10-25T15:49:07.997Z,9.99
2023-10-25T15:51:25.220Z,9.94
2023-10-25T15:53:43.275Z,9.94
2023-10-25T15:56:01.361Z,9.91
2023-10-25T15:58:21.943Z,9.83
2023-10-25T16:00:44.990Z,9.81
2023-10-25T16:03:03.223Z,9.78
2023-10-25T16:05:19.731Z,9.75
2023-10-25T16:07:38.862Z,9.71
2023-10-25T16:09:54.432Z,9.66
2023-10-25T16:12:10.121Z,9.63
2023-10-25T16:14:31.612Z,9.58
2023-10-25T16:16:47.247Z,9.56
2023-10-25T16:19:03.829Z,9.52
2023-10-25T16:21:24.490Z,9.49
2023-10-25T16:23:43.595Z,9.50
2023-10-25T16:26:06.897Z,9.52
2023-10-25T16:28:22.246Z,9.48
2023-10-25T16:30:42.922Z,9.48
2023-10-25T16:33:03.599Z,9.49
2023-10-25T16:35:20.005Z,9.46
2023-10-25T16:37:39.677Z,9.45
2023-10-25T16:40:01.976Z,9.43
2023-10-25T16:42:18.837Z,9.42
2023-10-25T16:44:36.966Z,9.43
2023-10-25T16:46:57.566Z,9.39
2023-10-25T16:49:19.200Z,9.38
2023-10-25T16:51:38.194Z,9.34
2023-10-25T16:53:56.297Z,9.27
2023-10-25T16:56:12.856Z,9.24
2023-10-25T16:58:30.968Z,9.23
2023-10-25T17:00:51.526Z,9.25
2023-10-25T17:03:09.736Z,9.25
2023-10-25T17:05:27.862Z,9.20
2023-10-25T17:07:43.397Z,9.10
2023-10-25T17:10:03.381Z,9.13
2023-10-25T17:12:21.458Z,9.05
2023-10-25T17:14:38.915Z,9.09
2023-10-25T17:16:58.687Z,9.13
2023-10-25T17:19:16.674Z,9.15
2023-10-25T17:21:37.301Z,9.23
2023-10-25T17:23:57.933Z,9.30
2023-10-25T17:26:15.982Z,9.27
2023-10-25T17:28:36.599Z,9.30
2023-10-25T17:30:57.206Z,9.32
2023-10-25T17:33:11.782Z,9.35
2023-10-25T17:35:30.855Z,9.30
2023-10-25T17:37:48.996Z,9.30
2023-10-25T17:42:07.214Z,9.21
2023-10-25T17:44:27.758Z,9.18
2023-10-25T17:46:41.363Z,9.18
2023-10-25T17:48:53.435Z,9.12
2023-10-25T17:51:05.519Z,9.20
2023-10-25T17:53:21.061Z,9.23
2023-10-25T17:55:41.908Z,9.24
2023-10-25T17:57:53.998Z,9.30
2023-10-25T18:00:12.141Z,9.32
2023-10-25T18:02:32.794Z,9.34
2023-10-25T18:04:49.361Z,9.32
2023-10-25T18:07:09.878Z,9.38
2023-10-25T18:09:28.946Z,9.42
2023-10-25T18:11:49.588Z,9.46
2023-10-25T18:14:10.658Z,9.52
2023-10-25T18:16:30.367Z,9.53
2023-10-25T18:18:47.626Z,9.61
2023-10-25T18:21:05.961Z,9.63
2023-10-25T18:23:20.112Z,9.63
2023-10-25T18:25:41.446Z,9.64
2023-10-25T18:27:59.421Z,9.64
2023-10-25T18:30:24.343Z,9.67
2023-10-25T18:32:36.736Z,9.68
2023-10-25T18:34:54.567Z,9.68
2023-10-25T18:37:08.768Z,9.71
2023-10-25T18:39:26.898Z,9.71
2023-10-25T18:41:48.469Z,9.73
2023-10-25T18:44:01.564Z,9.76
2023-10-25T18:46:19.695Z,9.79
2023-10-25T18:48:40.405Z,9.78
2023-10-25T18:50:58.417Z,9.78
2023-10-25T18:53:19.902Z,9.76
2023-10-25T18:55:44.679Z,9.73
2023-10-25T18:58:06.242Z,9.73
2023-10-25T19:01:00.198Z,9.73
2023-10-25T19:03:15.029Z,9.76
2023-10-25T19:06:26.335Z,9.78
2023-10-25T19:06:40.362Z,9.78
2023-10-25T19:08:54.888Z,9.81
2023-10-25T19:11:15.276Z,9.82
2023-10-25T19:13:34.351Z,9.83
2023-10-25T19:15:50.973Z,9.86
2023-10-25T19:18:09.136Z,9.85
2023-10-25T19:20:29.630Z,9.86
2023-10-25T19:22:47.733Z,9.86
2023-10-25T19:25:05.927Z,9.85
2023-10-25T19:27:26.461Z,9.86
2023-10-25T19:29:44.528Z,9.86
2023-10-25T19:32:05.079Z,9.85
2023-10-25T19:34:23.180Z,9.89
2023-10-25T19:36:43.776Z,9.91
2023-10-25T19:39:00.354Z,9.89
2023-10-25T19:41:21.005Z,9.89
2023-10-25T19:43:39.047Z,9.91
2023-10-25T19:46:00.215Z,9.91
2023-10-25T19:48:18.338Z,9.94
2023-10-25T19:50:38.890Z,9.91
2023-10-25T19:52:59.487Z,9.91
2023-10-25T19:55:18.559Z,9.93
2023-10-25T19:57:40.113Z,9.93
2023-10-25T19:59:58.223Z,9.89
2023-10-25T20:02:16.278Z,9.96
2023-10-25T20:04:31.976Z,9.94
2023-10-25T20:06:50.086Z,9.94
2023-10-25T20:09:08.040Z,9.97
2023-10-25T20:12:17.596Z,10.00
2023-10-25T20:14:38.161Z,10.01
2023-10-25T20:16:57.258Z,10.01
2023-10-25T20:19:17.848Z,10.01
2023-10-25T20:21:35.941Z,10.01
2023-10-25T20:23:52.614Z,10.01
2023-10-25T20:26:21.497Z,10.00
2023-10-25T20:28:22.741Z,10.01
2023-10-25T20:30:45.720Z,10.01
2023-10-25T20:33:01.981Z,10.01
2023-10-25T20:35:22.830Z,10.01
2023-10-25T20:37:39.834Z,9.99
2023-10-25T20:39:56.661Z,10.01
2023-10-25T20:42:38.395Z,10.01
2023-10-25T20:44:56.462Z,10.01
2023-10-25T20:47:51.091Z,10.06
2023-10-25T20:50:30.414Z,10.09
2023-10-25T20:52:48.012Z,10.12
2023-10-25T20:55:08.609Z,10.14
2023-10-25T20:57:28.622Z,10.14
2023-10-25T20:59:58.656Z,10.12
2023-10-25T21:02:21.513Z,10.12
2023-10-25T21:04:39.627Z,10.14
2023-10-25T21:07:17.057Z,10.14
2023-10-25T21:09:55.631Z,10.15
2023-10-25T21:12:16.630Z,10.14
2023-10-25T21:14:35.782Z,10.14
2023-10-25T21:22:09.011Z,10.14
2023-10-25T22:02:26.874Z,10.10
2023-10-25T22:04:40.958Z,10.12
2023-10-25T22:07:00.609Z,10.12
2023-10-25T22:09:18.726Z,10.12
2023-10-25T22:11:39.304Z,10.10
2023-10-25T22:14:01.844Z,10.15
2023-10-25T22:16:19.018Z,10.15
2023-10-25T22:18:38.335Z,10.17
2023-10-25T22:20:57.207Z,10.17
2023-10-25T22:23:18.722Z,10.17
2023-10-25T22:25:38.869Z,10.17
2023-10-25T22:27:59.503Z,10.15
2023-10-25T22:30:20.157Z,10.17
2023-10-25T22:32:38.233Z,10.18
2023-10-25T22:34:54.756Z,10.19
2023-10-25T22:37:11.347Z,10.19
2023-10-25T22:39:28.430Z,10.21
2023-10-25T22:41:44.556Z,10.19
2023-10-25T22:44:01.076Z,10.19
2023-10-25T22:46:21.654Z,10.21
2023-10-25T22:48:39.821Z,10.19
2023-10-25T22:51:00.653Z,10.21
2023-10-25T22:53:21.212Z,10.21
2023-10-25T22:55:39.288Z,10.22
2023-10-25T22:57:58.363Z,10.22
2023-10-25T23:00:17.916Z,10.21
2023-10-25T23:02:38.447Z,10.22
2023-10-25T23:04:59.552Z,10.22
2023-10-25T23:07:20.092Z,10.22
2023-10-25T23:09:36.987Z,10.22
2023-10-25T23:11:57.570Z,10.22
2023-10-25T23:14:16.633Z,10.25
2023-10-25T23:16:35.689Z,10.24
2023-10-25T23:18:56.354Z,10.24
2023-10-25T23:21:16.939Z,10.24
2023-10-25T23:23:33.536Z,10.22
2023-10-25T23:25:54.133Z,10.22
2023-10-25T23:28:13.824Z,10.22
2023-10-25T23:30:30.457Z,10.21
2023-10-25T23:32:51.049Z,10.25
2023-10-25T23:35:09.060Z,10.26
2023-10-25T23:37:25.611Z,10.25
2023-10-25T23:39:43.235Z,10.25
2023-10-25T23:42:03.819Z,10.24
2023-10-25T23:44:21.879Z,10.25
2023-10-25T23:46:43.558Z,10.25
2023-10-25T23:49:01.628Z,10.24
2023-10-25T23:51:21.280Z,10.25
2023-10-25T23:54:51.453Z,10.22
2023-10-25T23:56:53.312Z,10.21
2023-10-25T23:59:12.345Z,10.19
